sensor_id;sensor_type;location;lat;lon;timestamp;temperature;humidity
48454;DHT22;34261;55.678;12.464;2022-10-18T00:01:08;15.10;99.90
48454;DHT22;34261;55.678;12.464;2022-10-18T00:03:34;15.10;99.90
48454;DHT22;34261;55.678;12.464;2022-10-18T00:06:00;15.10;99.90
48454;DHT22;34261;55.678;12.464;2022-10-18T00:08:26;15.10;99.90
48454;DHT22;34261;55.678;12.464;2022-10-18T00:10:52;15.00;99.90
48454;DHT22;34261;55.678;12.464;2022-10-18T00:13:17;15.00;99.90
48454;DHT22;34261;55.678;12.464;2022-10-18T00:18:38;15.10;99.90
48454;DHT22;34261;55.678;12.464;2022-10-18T00:21:05;15.10;99.90
48454;DHT22;34261;55.678;12.464;2022-10-18T00:23:31;15.00;99.90
48454;DHT22;34261;55.678;12.464;2022-10-18T00:26:31;15.00;99.90
48454;DHT22;34261;55.678;12.464;2022-10-18T00:28:50;14.90;99.90
48454;DHT22;34261;55.678;12.464;2022-10-18T00:31:17;14.90;99.90
48454;DHT22;34261;55.678;12.464;2022-10-18T00:33:44;14.80;99.90
48454;DHT22;34261;55.678;12.464;2022-10-18T00:36:10;14.80;99.90
48454;DHT22;34261;55.678;12.464;2022-10-18T00:38:35;14.80;99.90
48454;DHT22;34261;55.678;12.464;2022-10-18T00:41:01;14.70;99.90
48454;DHT22;34261;55.678;12.464;2022-10-18T00:43:28;14.70;99.90
48454;DHT22;34261;55.678;12.464;2022-10-18T00:45:55;14.70;99.90
48454;DHT22;34261;55.678;12.464;2022-10-18T00:48:20;14.70;99.90
48454;DHT22;34261;55.678;12.464;2022-10-18T00:50:46;14.70;99.90
48454;DHT22;34261;55.678;12.464;2022-10-18T00:53:14;14.60;99.90
48454;DHT22;34261;55.678;12.464;2022-10-18T00:55:40;14.60;99.90
48454;DHT22;34261;55.678;12.464;2022-10-18T00:58:06;14.60;99.90
48454;DHT22;34261;55.678;12.464;2022-10-18T01:00:32;14.60;99.90
48454;DHT22;34261;55.678;12.464;2022-10-18T01:03:00;14.50;99.90
48454;DHT22;34261;55.678;12.464;2022-10-18T01:05:26;14.50;99.90
48454;DHT22;34261;55.678;12.464;2022-10-18T01:07:55;14.50;99.90
48454;DHT22;34261;55.678;12.464;2022-10-18T01:15:39;14.40;99.90
48454;DHT22;34261;55.678;12.464;2022-10-18T01:18:14;14.40;99.90
48454;DHT22;34261;55.678;12.464;2022-10-18T01:23:15;14.40;99.90
48454;DHT22;34261;55.678;12.464;2022-10-18T01:25:50;14.30;99.90
48454;DHT22;34261;55.678;12.464;2022-10-18T01:30:52;14.30;99.90
48454;DHT22;34261;55.678;12.464;2022-10-18T01:33:25;14.30;99.90
48454;DHT22;34261;55.678;12.464;2022-10-18T01:35:55;14.30;99.90
48454;DHT22;34261;55.678;12.464;2022-10-18T01:38:21;14.20;99.90
48454;DHT22;34261;55.678;12.464;2022-10-18T01:40:48;14.20;99.90
48454;DHT22;34261;55.678;12.464;2022-10-18T01:43:14;14.10;99.90
48454;DHT22;34261;55.678;12.464;2022-10-18T01:45:40;14.10;99.90
48454;DHT22;34261;55.678;12.464;2022-10-18T01:48:06;14.10;99.90
48454;DHT22;34261;55.678;12.464;2022-10-18T01:50:33;14.10;99.90
48454;DHT22;34261;55.678;12.464;2022-10-18T01:52:59;14.10;99.90
48454;DHT22;34261;55.678;12.464;2022-10-18T01:55:34;14.10;99.90
48454;DHT22;34261;55.678;12.464;2022-10-18T01:58:04;14.00;99.90
48454;DHT22;34261;55.678;12.464;2022-10-18T02:00:40;14.00;99.90
48454;DHT22;34261;55.678;12.464;2022-10-18T02:03:13;13.90;99.90
48454;DHT22;34261;55.678;12.464;2022-10-18T02:05:53;13.90;99.90
48454;DHT22;34261;55.678;12.464;2022-10-18T02:08:30;13.90;99.90
48454;DHT22;34261;55.678;12.464;2022-10-18T02:11:00;13.90;99.90
48454;DHT22;34261;55.678;12.464;2022-10-18T02:13:28;13.90;99.90
48454;DHT22;34261;55.678;12.464;2022-10-18T02:15:56;13.80;99.90
48454;DHT22;34261;55.678;12.464;2022-10-18T02:18:24;13.80;99.90
48454;DHT22;34261;55.678;12.464;2022-10-18T02:20:53;13.80;99.90
48454;DHT22;34261;55.678;12.464;2022-10-18T02:23:20;13.70;99.90
48454;DHT22;34261;55.678;12.464;2022-10-18T02:25:47;13.70;99.90
48454;DHT22;34261;55.678;12.464;2022-10-18T02:28:12;13.70;99.90
48454;DHT22;34261;55.678;12.464;2022-10-18T02:30:46;13.60;99.90
48454;DHT22;34261;55.678;12.464;2022-10-18T02:33:21;13.60;99.90
48454;DHT22;34261;55.678;12.464;2022-10-18T02:35:52;13.50;99.90
48454;DHT22;34261;55.678;12.464;2022-10-18T02:38:19;13.50;99.90
48454;DHT22;34261;55.678;12.464;2022-10-18T02:40:45;13.50;99.90
48454;DHT22;34261;55.678;12.464;2022-10-18T02:43:11;13.50;99.90
48454;DHT22;34261;55.678;12.464;2022-10-18T02:45:38;13.50;99.90
48454;DHT22;34261;55.678;12.464;2022-10-18T02:48:03;13.40;99.90
48454;DHT22;34261;55.678;12.464;2022-10-18T02:50:30;13.30;99.90
48454;DHT22;34261;55.678;12.464;2022-10-18T02:52:55;13.30;99.90
48454;DHT22;34261;55.678;12.464;2022-10-18T02:55:21;13.30;99.90
48454;DHT22;34261;55.678;12.464;2022-10-18T02:57:46;13.30;99.90
48454;DHT22;34261;55.678;12.464;2022-10-18T03:00:12;13.30;99.90
48454;DHT22;34261;55.678;12.464;2022-10-18T03:02:37;13.30;99.90
48454;DHT22;34261;55.678;12.464;2022-10-18T03:05:03;13.30;99.90
48454;DHT22;34261;55.678;12.464;2022-10-18T03:07:29;13.20;99.90
48454;DHT22;34261;55.678;12.464;2022-10-18T03:09:55;13.20;99.90
48454;DHT22;34261;55.678;12.464;2022-10-18T03:12:23;13.20;99.90
48454;DHT22;34261;55.678;12.464;2022-10-18T03:14:49;13.20;99.90
48454;DHT22;34261;55.678;12.464;2022-10-18T03:17:14;13.20;99.90
48454;DHT22;34261;55.678;12.464;2022-10-18T03:19:40;13.20;99.90
48454;DHT22;34261;55.678;12.464;2022-10-18T03:22:05;13.10;99.90
48454;DHT22;34261;55.678;12.464;2022-10-18T03:24:31;13.20;99.90
48454;DHT22;34261;55.678;12.464;2022-10-18T03:26:56;13.20;99.90
48454;DHT22;34261;55.678;12.464;2022-10-18T03:29:22;13.20;99.90
48454;DHT22;34261;55.678;12.464;2022-10-18T03:31:49;13.30;99.90
48454;DHT22;34261;55.678;12.464;2022-10-18T03:34:14;13.30;99.90
48454;DHT22;34261;55.678;12.464;2022-10-18T03:36:41;13.30;99.90
48454;DHT22;34261;55.678;12.464;2022-10-18T03:39:07;13.20;99.90
48454;DHT22;34261;55.678;12.464;2022-10-18T03:41:33;13.20;99.90
48454;DHT22;34261;55.678;12.464;2022-10-18T03:43:58;13.20;99.90
48454;DHT22;34261;55.678;12.464;2022-10-18T03:46:23;13.20;99.90
48454;DHT22;34261;55.678;12.464;2022-10-18T03:48:49;13.30;99.90
48454;DHT22;34261;55.678;12.464;2022-10-18T03:51:14;13.30;99.90
48454;DHT22;34261;55.678;12.464;2022-10-18T03:53:40;13.20;99.90
48454;DHT22;34261;55.678;12.464;2022-10-18T03:56:05;13.20;99.90
48454;DHT22;34261;55.678;12.464;2022-10-18T03:58:31;13.20;99.90
48454;DHT22;34261;55.678;12.464;2022-10-18T04:00:56;13.20;99.90
48454;DHT22;34261;55.678;12.464;2022-10-18T04:03:22;13.20;99.90
48454;DHT22;34261;55.678;12.464;2022-10-18T04:05:49;13.10;99.90
48454;DHT22;34261;55.678;12.464;2022-10-18T04:08:15;13.10;99.90
48454;DHT22;34261;55.678;12.464;2022-10-18T04:10:41;13.20;99.90
48454;DHT22;34261;55.678;12.464;2022-10-18T04:13:07;13.20;99.90
48454;DHT22;34261;55.678;12.464;2022-10-18T04:15:32;13.20;99.90
48454;DHT22;34261;55.678;12.464;2022-10-18T04:17:58;13.10;99.90
48454;DHT22;34261;55.678;12.464;2022-10-18T04:20:23;13.10;99.90
48454;DHT22;34261;55.678;12.464;2022-10-18T04:22:49;13.10;99.90
48454;DHT22;34261;55.678;12.464;2022-10-18T04:25:15;13.20;99.90
48454;DHT22;34261;55.678;12.464;2022-10-18T04:27:40;13.20;99.90
48454;DHT22;34261;55.678;12.464;2022-10-18T04:30:06;13.20;99.90
48454;DHT22;34261;55.678;12.464;2022-10-18T04:32:32;13.30;99.90
48454;DHT22;34261;55.678;12.464;2022-10-18T04:35:02;13.30;99.90
48454;DHT22;34261;55.678;12.464;2022-10-18T04:37:28;13.40;99.90
48454;DHT22;34261;55.678;12.464;2022-10-18T04:39:54;13.40;99.90
48454;DHT22;34261;55.678;12.464;2022-10-18T04:42:20;13.40;99.90
48454;DHT22;34261;55.678;12.464;2022-10-18T04:44:45;13.40;99.90
48454;DHT22;34261;55.678;12.464;2022-10-18T04:47:11;13.40;99.90
48454;DHT22;34261;55.678;12.464;2022-10-18T04:49:36;13.40;99.90
48454;DHT22;34261;55.678;12.464;2022-10-18T04:52:02;13.40;99.90
48454;DHT22;34261;55.678;12.464;2022-10-18T04:54:27;13.40;99.90
48454;DHT22;34261;55.678;12.464;2022-10-18T04:56:53;13.50;99.90
48454;DHT22;34261;55.678;12.464;2022-10-18T04:59:18;13.50;99.90
48454;DHT22;34261;55.678;12.464;2022-10-18T05:01:44;13.50;99.90
48454;DHT22;34261;55.678;12.464;2022-10-18T05:04:09;13.50;99.90
48454;DHT22;34261;55.678;12.464;2022-10-18T05:06:35;13.50;99.90
48454;DHT22;34261;55.678;12.464;2022-10-18T05:09:00;13.50;99.90
48454;DHT22;34261;55.678;12.464;2022-10-18T05:11:26;13.50;99.90
48454;DHT22;34261;55.678;12.464;2022-10-18T05:13:51;13.50;99.90
48454;DHT22;34261;55.678;12.464;2022-10-18T05:16:17;13.50;99.90
48454;DHT22;34261;55.678;12.464;2022-10-18T05:18:42;13.50;99.90
48454;DHT22;34261;55.678;12.464;2022-10-18T05:21:08;13.50;99.90
48454;DHT22;34261;55.678;12.464;2022-10-18T05:23:33;13.50;99.90
48454;DHT22;34261;55.678;12.464;2022-10-18T05:26:05;13.50;99.90
48454;DHT22;34261;55.678;12.464;2022-10-18T05:28:32;13.50;99.90
48454;DHT22;34261;55.678;12.464;2022-10-18T05:31:00;13.50;99.90
48454;DHT22;34261;55.678;12.464;2022-10-18T05:33:26;13.50;99.90
48454;DHT22;34261;55.678;12.464;2022-10-18T05:35:52;13.50;99.90
48454;DHT22;34261;55.678;12.464;2022-10-18T05:38:18;13.40;99.90
48454;DHT22;34261;55.678;12.464;2022-10-18T05:40:43;13.50;99.90
48454;DHT22;34261;55.678;12.464;2022-10-18T05:43:09;13.40;99.90
48454;DHT22;34261;55.678;12.464;2022-10-18T05:45:34;13.50;99.90
48454;DHT22;34261;55.678;12.464;2022-10-18T05:48:00;13.40;99.90
48454;DHT22;34261;55.678;12.464;2022-10-18T05:50:25;13.50;99.90
48454;DHT22;34261;55.678;12.464;2022-10-18T05:52:54;13.40;99.90
48454;DHT22;34261;55.678;12.464;2022-10-18T05:55:21;13.40;99.90
48454;DHT22;34261;55.678;12.464;2022-10-18T05:57:49;13.40;99.90
48454;DHT22;34261;55.678;12.464;2022-10-18T06:00:15;13.40;99.90
48454;DHT22;34261;55.678;12.464;2022-10-18T06:02:41;13.40;99.90
48454;DHT22;34261;55.678;12.464;2022-10-18T06:05:06;13.40;99.90
48454;DHT22;34261;55.678;12.464;2022-10-18T06:07:32;13.40;99.90
48454;DHT22;34261;55.678;12.464;2022-10-18T06:09:57;13.40;99.90
48454;DHT22;34261;55.678;12.464;2022-10-18T06:12:23;13.40;99.90
48454;DHT22;34261;55.678;12.464;2022-10-18T06:14:48;13.40;99.90
48454;DHT22;34261;55.678;12.464;2022-10-18T06:17:15;13.40;99.90
48454;DHT22;34261;55.678;12.464;2022-10-18T06:19:40;13.40;99.90
48454;DHT22;34261;55.678;12.464;2022-10-18T06:22:09;13.40;99.90
48454;DHT22;34261;55.678;12.464;2022-10-18T06:24:36;13.40;99.90
48454;DHT22;34261;55.678;12.464;2022-10-18T06:27:01;13.40;99.90
48454;DHT22;34261;55.678;12.464;2022-10-18T06:29:34;13.40;99.90
48454;DHT22;34261;55.678;12.464;2022-10-18T06:31:59;13.40;99.90
48454;DHT22;34261;55.678;12.464;2022-10-18T06:34:25;13.50;99.90
48454;DHT22;34261;55.678;12.464;2022-10-18T06:36:50;13.50;99.90
48454;DHT22;34261;55.678;12.464;2022-10-18T06:39:16;13.50;99.90
48454;DHT22;34261;55.678;12.464;2022-10-18T06:41:41;13.50;99.90
48454;DHT22;34261;55.678;12.464;2022-10-18T06:44:08;13.50;99.90
48454;DHT22;34261;55.678;12.464;2022-10-18T06:46:38;13.50;99.90
48454;DHT22;34261;55.678;12.464;2022-10-18T06:49:04;13.50;99.90
48454;DHT22;34261;55.678;12.464;2022-10-18T06:51:30;13.50;99.90
48454;DHT22;34261;55.678;12.464;2022-10-18T06:53:57;13.50;99.90
48454;DHT22;34261;55.678;12.464;2022-10-18T06:56:22;13.50;99.90
48454;DHT22;34261;55.678;12.464;2022-10-18T06:58:47;13.60;99.90
48454;DHT22;34261;55.678;12.464;2022-10-18T07:01:14;13.70;99.90
48454;DHT22;34261;55.678;12.464;2022-10-18T07:03:40;13.60;99.90
48454;DHT22;34261;55.678;12.464;2022-10-18T07:06:06;13.70;99.90
48454;DHT22;34261;55.678;12.464;2022-10-18T07:08:32;13.70;99.90
48454;DHT22;34261;55.678;12.464;2022-10-18T07:10:57;13.70;99.90
48454;DHT22;34261;55.678;12.464;2022-10-18T07:13:23;13.70;99.90
48454;DHT22;34261;55.678;12.464;2022-10-18T07:16:11;13.70;99.90
48454;DHT22;34261;55.678;12.464;2022-10-18T07:18:36;13.80;99.90
48454;DHT22;34261;55.678;12.464;2022-10-18T07:21:06;13.90;99.90
48454;DHT22;34261;55.678;12.464;2022-10-18T07:23:32;13.90;99.90
48454;DHT22;34261;55.678;12.464;2022-10-18T07:25:58;13.90;99.90
48454;DHT22;34261;55.678;12.464;2022-10-18T07:28:27;14.00;99.90
48454;DHT22;34261;55.678;12.464;2022-10-18T07:30:53;14.00;99.90
48454;DHT22;34261;55.678;12.464;2022-10-18T07:33:18;14.00;99.90
48454;DHT22;34261;55.678;12.464;2022-10-18T07:35:46;14.00;99.90
48454;DHT22;34261;55.678;12.464;2022-10-18T07:38:12;14.00;99.90
48454;DHT22;34261;55.678;12.464;2022-10-18T07:40:37;14.00;99.90
48454;DHT22;34261;55.678;12.464;2022-10-18T07:43:03;14.00;99.90
48454;DHT22;34261;55.678;12.464;2022-10-18T07:45:28;14.00;99.90
48454;DHT22;34261;55.678;12.464;2022-10-18T07:47:54;14.10;99.90
48454;DHT22;34261;55.678;12.464;2022-10-18T07:50:20;14.10;99.90
48454;DHT22;34261;55.678;12.464;2022-10-18T07:52:45;14.10;99.90
48454;DHT22;34261;55.678;12.464;2022-10-18T07:55:11;14.10;99.90
48454;DHT22;34261;55.678;12.464;2022-10-18T07:57:36;14.10;99.90
48454;DHT22;34261;55.678;12.464;2022-10-18T08:00:02;14.20;99.90
48454;DHT22;34261;55.678;12.464;2022-10-18T08:02:27;14.20;99.90
48454;DHT22;34261;55.678;12.464;2022-10-18T08:04:53;14.20;99.90
48454;DHT22;34261;55.678;12.464;2022-10-18T08:07:18;14.20;99.90
48454;DHT22;34261;55.678;12.464;2022-10-18T08:09:44;14.20;99.90
48454;DHT22;34261;55.678;12.464;2022-10-18T08:12:09;14.20;99.90
48454;DHT22;34261;55.678;12.464;2022-10-18T08:14:35;14.20;99.90
48454;DHT22;34261;55.678;12.464;2022-10-18T08:17:00;14.30;99.90
48454;DHT22;34261;55.678;12.464;2022-10-18T08:19:26;14.20;99.90
48454;DHT22;34261;55.678;12.464;2022-10-18T08:21:51;14.10;99.90
48454;DHT22;34261;55.678;12.464;2022-10-18T08:24:16;14.10;99.90
48454;DHT22;34261;55.678;12.464;2022-10-18T08:26:42;14.10;99.90
48454;DHT22;34261;55.678;12.464;2022-10-18T08:29:07;14.20;99.90
48454;DHT22;34261;55.678;12.464;2022-10-18T08:31:34;14.20;99.90
48454;DHT22;34261;55.678;12.464;2022-10-18T08:34:00;14.20;99.90
48454;DHT22;34261;55.678;12.464;2022-10-18T08:36:25;14.10;99.90
48454;DHT22;34261;55.678;12.464;2022-10-18T08:38:51;14.20;99.90
48454;DHT22;34261;55.678;12.464;2022-10-18T08:44:02;14.20;99.90
48454;DHT22;34261;55.678;12.464;2022-10-18T08:46:29;14.30;99.90
48454;DHT22;34261;55.678;12.464;2022-10-18T08:48:56;14.20;99.90
48454;DHT22;34261;55.678;12.464;2022-10-18T08:51:30;14.30;99.90
48454;DHT22;34261;55.678;12.464;2022-10-18T08:56:23;14.40;99.90
48454;DHT22;34261;55.678;12.464;2022-10-18T08:58:49;14.30;99.90
48454;DHT22;34261;55.678;12.464;2022-10-18T09:04:14;14.40;99.90
48454;DHT22;34261;55.678;12.464;2022-10-18T09:22:30;15.10;99.90
48454;DHT22;34261;55.678;12.464;2022-10-18T09:25:05;15.20;99.90
48454;DHT22;34261;55.678;12.464;2022-10-18T09:27:34;15.30;99.90
48454;DHT22;34261;55.678;12.464;2022-10-18T09:30:17;15.40;99.90
48454;DHT22;34261;55.678;12.464;2022-10-18T09:35:20;15.70;99.90
48454;DHT22;34261;55.678;12.464;2022-10-18T09:37:46;15.80;99.90
48454;DHT22;34261;55.678;12.464;2022-10-18T09:42:38;15.90;99.90
48454;DHT22;34261;55.678;12.464;2022-10-18T09:45:17;16.00;99.90
48454;DHT22;34261;55.678;12.464;2022-10-18T09:48:00;16.20;99.90
48454;DHT22;34261;55.678;12.464;2022-10-18T09:56:14;16.70;99.90
48454;DHT22;34261;55.678;12.464;2022-10-18T09:58:37;16.40;99.90
48454;DHT22;34261;55.678;12.464;2022-10-18T10:01:04;16.30;99.90
48454;DHT22;34261;55.678;12.464;2022-10-18T10:03:30;16.20;99.90
48454;DHT22;34261;55.678;12.464;2022-10-18T10:06:13;16.10;99.90
48454;DHT22;34261;55.678;12.464;2022-10-18T10:08:40;16.10;99.90
48454;DHT22;34261;55.678;12.464;2022-10-18T10:11:24;16.10;99.90
48454;DHT22;34261;55.678;12.464;2022-10-18T10:13:50;16.40;99.90
48454;DHT22;34261;55.678;12.464;2022-10-18T10:16:15;16.40;99.90
48454;DHT22;34261;55.678;12.464;2022-10-18T10:18:41;16.50;99.90
48454;DHT22;34261;55.678;12.464;2022-10-18T10:21:12;16.40;99.90
48454;DHT22;34261;55.678;12.464;2022-10-18T10:23:59;16.40;99.90
48454;DHT22;34261;55.678;12.464;2022-10-18T10:26:29;16.30;99.90
48454;DHT22;34261;55.678;12.464;2022-10-18T10:28:56;16.20;99.90
48454;DHT22;34261;55.678;12.464;2022-10-18T10:31:28;16.10;99.90
48454;DHT22;34261;55.678;12.464;2022-10-18T10:34:01;16.10;99.90
48454;DHT22;34261;55.678;12.464;2022-10-18T10:36:28;16.00;99.90
48454;DHT22;34261;55.678;12.464;2022-10-18T10:39:11;16.00;99.90
48454;DHT22;34261;55.678;12.464;2022-10-18T10:41:37;16.10;99.90
48454;DHT22;34261;55.678;12.464;2022-10-18T10:44:04;16.00;99.90
48454;DHT22;34261;55.678;12.464;2022-10-18T10:46:37;15.90;99.90
48454;DHT22;34261;55.678;12.464;2022-10-18T10:49:04;15.80;99.90
48454;DHT22;34261;55.678;12.464;2022-10-18T10:51:30;16.10;99.90
48454;DHT22;34261;55.678;12.464;2022-10-18T10:56:27;16.80;99.90
48454;DHT22;34261;55.678;12.464;2022-10-18T10:58:54;17.00;99.90
48454;DHT22;34261;55.678;12.464;2022-10-18T11:01:22;16.90;99.90
48454;DHT22;34261;55.678;12.464;2022-10-18T11:03:49;16.70;99.90
48454;DHT22;34261;55.678;12.464;2022-10-18T11:06:28;16.60;99.90
48454;DHT22;34261;55.678;12.464;2022-10-18T11:08:55;16.50;99.90
48454;DHT22;34261;55.678;12.464;2022-10-18T11:11:24;16.50;99.90
48454;DHT22;34261;55.678;12.464;2022-10-18T11:14:37;16.50;99.90
48454;DHT22;34261;55.678;12.464;2022-10-18T11:16:49;16.50;99.90
48454;DHT22;34261;55.678;12.464;2022-10-18T11:19:37;16.50;99.90
48454;DHT22;34261;55.678;12.464;2022-10-18T11:22:01;16.50;99.90
48454;DHT22;34261;55.678;12.464;2022-10-18T11:24:29;16.60;99.90
48454;DHT22;34261;55.678;12.464;2022-10-18T11:27:05;16.70;99.90
48454;DHT22;34261;55.678;12.464;2022-10-18T11:29:39;17.00;99.90
48454;DHT22;34261;55.678;12.464;2022-10-18T11:34:57;17.20;99.90
48454;DHT22;34261;55.678;12.464;2022-10-18T11:40:17;17.00;99.90
48454;DHT22;34261;55.678;12.464;2022-10-18T11:42:53;16.80;99.90
48454;DHT22;34261;55.678;12.464;2022-10-18T11:48:05;16.90;99.90
48454;DHT22;34261;55.678;12.464;2022-10-18T11:58:21;16.90;99.90
48454;DHT22;34261;55.678;12.464;2022-10-18T12:00:51;16.90;99.90
48454;DHT22;34261;55.678;12.464;2022-10-18T12:05:43;16.80;99.90
48454;DHT22;34261;55.678;12.464;2022-10-18T12:08:12;16.80;99.90
48454;DHT22;34261;55.678;12.464;2022-10-18T12:10:39;17.30;99.90
48454;DHT22;34261;55.678;12.464;2022-10-18T12:13:06;17.50;99.90
48454;DHT22;34261;55.678;12.464;2022-10-18T12:15:35;17.80;99.90
48454;DHT22;34261;55.678;12.464;2022-10-18T12:18:04;17.70;99.60
48454;DHT22;34261;55.678;12.464;2022-10-18T12:20:35;17.60;99.80
48454;DHT22;34261;55.678;12.464;2022-10-18T12:23:02;17.40;99.90
48454;DHT22;34261;55.678;12.464;2022-10-18T12:25:29;17.20;99.90
48454;DHT22;34261;55.678;12.464;2022-10-18T12:27:58;17.00;99.90
48454;DHT22;34261;55.678;12.464;2022-10-18T12:33:16;16.70;99.90
48454;DHT22;34261;55.678;12.464;2022-10-18T12:35:46;16.50;99.90
48454;DHT22;34261;55.678;12.464;2022-10-18T12:38:20;16.40;99.90
48454;DHT22;34261;55.678;12.464;2022-10-18T12:40:48;16.50;99.90
48454;DHT22;34261;55.678;12.464;2022-10-18T12:43:16;16.60;99.90
48454;DHT22;34261;55.678;12.464;2022-10-18T12:45:46;16.50;99.90
48454;DHT22;34261;55.678;12.464;2022-10-18T12:53:41;16.40;99.90
48454;DHT22;34261;55.678;12.464;2022-10-18T13:02:23;16.20;99.90
48454;DHT22;34261;55.678;12.464;2022-10-18T13:09:43;15.90;99.90
48454;DHT22;34261;55.678;12.464;2022-10-18T13:15:02;16.30;99.90
48454;DHT22;34261;55.678;12.464;2022-10-18T13:22:43;16.60;99.90
48454;DHT22;34261;55.678;12.464;2022-10-18T13:28:00;17.30;99.90
48454;DHT22;34261;55.678;12.464;2022-10-18T13:32:57;17.60;99.90
48454;DHT22;34261;55.678;12.464;2022-10-18T13:35:44;17.70;99.90
48454;DHT22;34261;55.678;12.464;2022-10-18T13:41:11;17.40;99.90
48454;DHT22;34261;55.678;12.464;2022-10-18T13:51:22;17.10;99.90
48454;DHT22;34261;55.678;12.464;2022-10-18T13:54:07;17.00;99.90
48454;DHT22;34261;55.678;12.464;2022-10-18T13:56:45;16.90;99.90
48454;DHT22;34261;55.678;12.464;2022-10-18T14:01:55;16.70;99.90
48454;DHT22;34261;55.678;12.464;2022-10-18T14:07:29;16.40;99.90
48454;DHT22;34261;55.678;12.464;2022-10-18T14:09:56;16.50;99.90
48454;DHT22;34261;55.678;12.464;2022-10-18T14:12:24;16.50;99.90
48454;DHT22;34261;55.678;12.464;2022-10-18T14:14:58;16.50;99.90
48454;DHT22;34261;55.678;12.464;2022-10-18T14:17:34;16.50;99.90
48454;DHT22;34261;55.678;12.464;2022-10-18T14:20:02;16.40;99.90
48454;DHT22;34261;55.678;12.464;2022-10-18T14:22:37;16.30;99.90
48454;DHT22;34261;55.678;12.464;2022-10-18T14:25:16;16.20;99.90
48454;DHT22;34261;55.678;12.464;2022-10-18T14:27:42;16.10;99.90
48454;DHT22;34261;55.678;12.464;2022-10-18T14:30:09;16.20;99.90
48454;DHT22;34261;55.678;12.464;2022-10-18T14:32:35;16.20;99.90
48454;DHT22;34261;55.678;12.464;2022-10-18T14:35:00;16.10;99.90
48454;DHT22;34261;55.678;12.464;2022-10-18T14:37:27;15.90;99.90
48454;DHT22;34261;55.678;12.464;2022-10-18T14:39:55;15.90;99.90
48454;DHT22;34261;55.678;12.464;2022-10-18T14:42:22;15.80;99.90
48454;DHT22;34261;55.678;12.464;2022-10-18T14:44:48;15.80;99.90
48454;DHT22;34261;55.678;12.464;2022-10-18T14:47:27;15.70;99.90
48454;DHT22;34261;55.678;12.464;2022-10-18T14:49:55;15.60;99.90
48454;DHT22;34261;55.678;12.464;2022-10-18T14:52:29;15.60;99.90
48454;DHT22;34261;55.678;12.464;2022-10-18T14:54:55;15.50;99.90
48454;DHT22;34261;55.678;12.464;2022-10-18T14:57:22;15.40;99.90
48454;DHT22;34261;55.678;12.464;2022-10-18T14:59:48;15.40;99.90
48454;DHT22;34261;55.678;12.464;2022-10-18T15:02:26;15.40;99.90
48454;DHT22;34261;55.678;12.464;2022-10-18T15:04:56;15.30;99.90
48454;DHT22;34261;55.678;12.464;2022-10-18T15:07:22;15.40;99.90
48454;DHT22;34261;55.678;12.464;2022-10-18T15:09:49;15.40;99.90
48454;DHT22;34261;55.678;12.464;2022-10-18T15:12:15;15.40;99.90
48454;DHT22;34261;55.678;12.464;2022-10-18T15:14:41;15.50;99.90
48454;DHT22;34261;55.678;12.464;2022-10-18T15:17:21;15.50;99.90
48454;DHT22;34261;55.678;12.464;2022-10-18T15:19:58;15.50;99.90
48454;DHT22;34261;55.678;12.464;2022-10-18T15:22:28;15.50;99.90
48454;DHT22;34261;55.678;12.464;2022-10-18T15:27:42;15.50;99.90
48454;DHT22;34261;55.678;12.464;2022-10-18T15:30:16;15.50;99.90
48454;DHT22;34261;55.678;12.464;2022-10-18T15:32:46;15.50;99.90
48454;DHT22;34261;55.678;12.464;2022-10-18T15:35:16;15.40;99.90
48454;DHT22;34261;55.678;12.464;2022-10-18T15:37:46;15.30;99.90
48454;DHT22;34261;55.678;12.464;2022-10-18T15:42:40;15.20;99.90
48454;DHT22;34261;55.678;12.464;2022-10-18T15:48:00;15.10;99.90
48454;DHT22;34261;55.678;12.464;2022-10-18T15:50:36;15.00;99.90
48454;DHT22;34261;55.678;12.464;2022-10-18T15:53:21;14.90;99.90
48454;DHT22;34261;55.678;12.464;2022-10-18T15:55:51;14.80;99.90
48454;DHT22;34261;55.678;12.464;2022-10-18T15:58:18;14.80;99.90
48454;DHT22;34261;55.678;12.464;2022-10-18T16:00:45;14.70;99.90
48454;DHT22;34261;55.678;12.464;2022-10-18T16:03:11;14.70;99.90
48454;DHT22;34261;55.678;12.464;2022-10-18T16:05:37;14.70;99.90
48454;DHT22;34261;55.678;12.464;2022-10-18T16:08:03;14.70;99.90
48454;DHT22;34261;55.678;12.464;2022-10-18T16:10:28;14.80;99.90
48454;DHT22;34261;55.678;12.464;2022-10-18T16:12:54;14.80;99.90
48454;DHT22;34261;55.678;12.464;2022-10-18T16:15:19;14.70;99.90
48454;DHT22;34261;55.678;12.464;2022-10-18T16:17:45;14.70;99.90
48454;DHT22;34261;55.678;12.464;2022-10-18T16:20:21;14.70;99.90
48454;DHT22;34261;55.678;12.464;2022-10-18T16:22:47;14.70;99.90
48454;DHT22;34261;55.678;12.464;2022-10-18T16:25:12;14.70;99.90
48454;DHT22;34261;55.678;12.464;2022-10-18T16:27:38;14.70;99.90
48454;DHT22;34261;55.678;12.464;2022-10-18T16:30:10;14.70;99.90
48454;DHT22;34261;55.678;12.464;2022-10-18T16:32:37;14.70;99.90
48454;DHT22;34261;55.678;12.464;2022-10-18T16:35:02;14.70;99.90
48454;DHT22;34261;55.678;12.464;2022-10-18T16:37:28;14.70;99.90
48454;DHT22;34261;55.678;12.464;2022-10-18T16:39:53;14.70;99.90
48454;DHT22;34261;55.678;12.464;2022-10-18T16:42:19;14.70;99.90
48454;DHT22;34261;55.678;12.464;2022-10-18T16:44:44;14.60;99.90
48454;DHT22;34261;55.678;12.464;2022-10-18T16:47:11;14.60;99.90
48454;DHT22;34261;55.678;12.464;2022-10-18T16:49:36;14.50;99.90
48454;DHT22;34261;55.678;12.464;2022-10-18T16:52:02;14.50;99.90
48454;DHT22;34261;55.678;12.464;2022-10-18T16:54:27;14.50;99.90
48454;DHT22;34261;55.678;12.464;2022-10-18T16:56:53;14.50;99.90
48454;DHT22;34261;55.678;12.464;2022-10-18T16:59:28;14.40;99.90
48454;DHT22;34261;55.678;12.464;2022-10-18T17:01:54;14.40;99.90
48454;DHT22;34261;55.678;12.464;2022-10-18T17:04:19;14.30;99.90
48454;DHT22;34261;55.678;12.464;2022-10-18T17:06:45;14.20;99.90
48454;DHT22;34261;55.678;12.464;2022-10-18T17:09:11;14.20;99.90
48454;DHT22;34261;55.678;12.464;2022-10-18T17:11:38;14.20;99.90
48454;DHT22;34261;55.678;12.464;2022-10-18T17:14:03;14.20;99.90
48454;DHT22;34261;55.678;12.464;2022-10-18T17:16:32;14.20;99.90
48454;DHT22;34261;55.678;12.464;2022-10-18T17:19:02;14.20;99.90
48454;DHT22;34261;55.678;12.464;2022-10-18T17:21:28;14.10;99.90
48454;DHT22;34261;55.678;12.464;2022-10-18T17:23:54;14.10;99.90
48454;DHT22;34261;55.678;12.464;2022-10-18T17:26:22;14.00;99.90